sensor_id;sensor_type;location;lat;lon;timestamp;P1;durP1;ratioP1;P2;durP2;ratioP2
44276;SDS011;29973;43.742;1.236;2023-08-21T00:01:32;13.27;;;3.90;;
44276;SDS011;29973;43.742;1.236;2023-08-21T00:03:58;9.93;;;3.90;;
44276;SDS011;29973;43.742;1.236;2023-08-21T00:06:23;14.43;;;4.03;;
44276;SDS011;29973;43.742;1.236;2023-08-21T00:08:49;14.70;;;4.43;;
44276;SDS011;29973;43.742;1.236;2023-08-21T00:11:15;9.40;;;3.72;;
44276;SDS011;29973;43.742;1.236;2023-08-21T00:13:41;10.90;;;3.47;;
44276;SDS011;29973;43.742;1.236;2023-08-21T00:16:09;14.63;;;4.55;;
44276;SDS011;29973;43.742;1.236;2023-08-21T00:18:38;19.25;;;4.30;;
44276;SDS011;29973;43.742;1.236;2023-08-21T00:21:03;8.57;;;4.13;;
44276;SDS011;29973;43.742;1.236;2023-08-21T00:23:29;8.40;;;3.60;;
44276;SDS011;29973;43.742;1.236;2023-08-21T00:25:56;16.20;;;4.30;;
44276;SDS011;29973;43.742;1.236;2023-08-21T00:28:22;9.25;;;3.90;;
44276;SDS011;29973;43.742;1.236;2023-08-21T00:30:47;11.98;;;3.97;;
44276;SDS011;29973;43.742;1.236;2023-08-21T00:33:13;16.88;;;4.22;;
44276;SDS011;29973;43.742;1.236;2023-08-21T00:35:39;12.85;;;4.70;;
44276;SDS011;29973;43.742;1.236;2023-08-21T00:38:05;13.27;;;3.38;;
44276;SDS011;29973;43.742;1.236;2023-08-21T00:40:31;9.35;;;3.60;;
44276;SDS011;29973;43.742;1.236;2023-08-21T00:42:56;12.82;;;4.30;;
44276;SDS011;29973;43.742;1.236;2023-08-21T00:45:22;12.57;;;4.43;;
44276;SDS011;29973;43.742;1.236;2023-08-21T00:47:48;10.23;;;3.72;;
44276;SDS011;29973;43.742;1.236;2023-08-21T00:50:14;14.75;;;4.35;;
44276;SDS011;29973;43.742;1.236;2023-08-21T00:52:40;11.00;;;4.13;;
44276;SDS011;29973;43.742;1.236;2023-08-21T00:55:09;12.20;;;3.80;;
44276;SDS011;29973;43.742;1.236;2023-08-21T00:57:36;13.45;;;3.97;;
44276;SDS011;29973;43.742;1.236;2023-08-21T01:00:03;15.43;;;4.43;;
44276;SDS011;29973;43.742;1.236;2023-08-21T01:02:30;8.65;;;3.70;;
44276;SDS011;29973;43.742;1.236;2023-08-21T01:04:55;11.52;;;3.38;;
44276;SDS011;29973;43.742;1.236;2023-08-21T01:07:21;8.40;;;3.50;;
44276;SDS011;29973;43.742;1.236;2023-08-21T01:17:25;11.07;;;4.00;;
44276;SDS011;29973;43.742;1.236;2023-08-21T01:19:53;10.98;;;4.25;;
44276;SDS011;29973;43.742;1.236;2023-08-21T01:22:20;9.90;;;3.90;;
44276;SDS011;29973;43.742;1.236;2023-08-21T01:24:50;13.27;;;3.75;;
44276;SDS011;29973;43.742;1.236;2023-08-21T01:27:15;12.63;;;3.58;;
44276;SDS011;29973;43.742;1.236;2023-08-21T01:29:41;10.48;;;4.13;;
44276;SDS011;29973;43.742;1.236;2023-08-21T01:34:52;11.95;;;3.97;;
44276;SDS011;29973;43.742;1.236;2023-08-21T01:37:21;10.38;;;3.88;;
44276;SDS011;29973;43.742;1.236;2023-08-21T01:39:48;9.35;;;3.28;;
44276;SDS011;29973;43.742;1.236;2023-08-21T01:42:14;12.68;;;3.65;;
44276;SDS011;29973;43.742;1.236;2023-08-21T01:44:40;13.35;;;3.85;;
44276;SDS011;29973;43.742;1.236;2023-08-21T01:47:06;11.45;;;3.92;;
44276;SDS011;29973;43.742;1.236;2023-08-21T01:49:32;13.23;;;3.45;;
44276;SDS011;29973;43.742;1.236;2023-08-21T01:51:57;9.10;;;3.50;;
44276;SDS011;29973;43.742;1.236;2023-08-21T01:54:23;6.65;;;3.22;;
44276;SDS011;29973;43.742;1.236;2023-08-21T01:56:49;12.90;;;3.92;;
44276;SDS011;29973;43.742;1.236;2023-08-21T01:59:16;13.55;;;3.97;;
44276;SDS011;29973;43.742;1.236;2023-08-21T02:01:42;11.23;;;3.20;;
44276;SDS011;29973;43.742;1.236;2023-08-21T02:04:08;15.30;;;3.72;;
44276;SDS011;29973;43.742;1.236;2023-08-21T02:06:33;12.27;;;3.13;;
44276;SDS011;29973;43.742;1.236;2023-08-21T02:08:59;9.52;;;3.20;;
44276;SDS011;29973;43.742;1.236;2023-08-21T02:11:25;7.55;;;3.30;;
44276;SDS011;29973;43.742;1.236;2023-08-21T02:13:51;13.68;;;3.53;;
44276;SDS011;29973;43.742;1.236;2023-08-21T02:16:16;6.80;;;2.80;;
44276;SDS011;29973;43.742;1.236;2023-08-21T02:18:42;11.52;;;3.08;;
44276;SDS011;29973;43.742;1.236;2023-08-21T02:21:08;9.60;;;3.20;;
44276;SDS011;29973;43.742;1.236;2023-08-21T02:23:33;9.90;;;3.25;;
44276;SDS011;29973;43.742;1.236;2023-08-21T02:25:59;9.50;;;2.97;;
44276;SDS011;29973;43.742;1.236;2023-08-21T02:28:25;12.75;;;3.60;;
44276;SDS011;29973;43.742;1.236;2023-08-21T02:30:50;10.18;;;3.05;;
44276;SDS011;29973;43.742;1.236;2023-08-21T02:33:16;10.48;;;2.95;;
44276;SDS011;29973;43.742;1.236;2023-08-21T02:35:42;12.05;;;3.28;;
44276;SDS011;29973;43.742;1.236;2023-08-21T02:38:07;10.23;;;3.47;;
44276;SDS011;29973;43.742;1.236;2023-08-21T02:40:33;18.10;;;3.83;;
44276;SDS011;29973;43.742;1.236;2023-08-21T02:42:59;15.05;;;3.80;;
44276;SDS011;29973;43.742;1.236;2023-08-21T02:45:25;14.70;;;3.28;;
44276;SDS011;29973;43.742;1.236;2023-08-21T02:47:50;6.65;;;2.88;;
44276;SDS011;29973;43.742;1.236;2023-08-21T02:50:16;12.70;;;3.15;;
44276;SDS011;29973;43.742;1.236;2023-08-21T02:52:42;11.75;;;3.60;;
44276;SDS011;29973;43.742;1.236;2023-08-21T02:55:07;10.27;;;3.33;;
44276;SDS011;29973;43.742;1.236;2023-08-21T02:57:33;7.60;;;2.88;;
44276;SDS011;29973;43.742;1.236;2023-08-21T02:59:59;12.13;;;3.15;;
44276;SDS011;29973;43.742;1.236;2023-08-21T03:02:25;9.27;;;2.90;;
44276;SDS011;29973;43.742;1.236;2023-08-21T03:04:50;13.45;;;3.75;;
44276;SDS011;29973;43.742;1.236;2023-08-21T03:07:16;11.57;;;3.08;;
44276;SDS011;29973;43.742;1.236;2023-08-21T03:09:44;11.60;;;2.80;;
44276;SDS011;29973;43.742;1.236;2023-08-21T03:12:14;15.20;;;3.40;;
44276;SDS011;29973;43.742;1.236;2023-08-21T03:14:39;11.02;;;2.95;;
44276;SDS011;29973;43.742;1.236;2023-08-21T03:17:06;13.10;;;3.42;;
44276;SDS011;29973;43.742;1.236;2023-08-21T03:19:31;8.35;;;3.00;;
44276;SDS011;29973;43.742;1.236;2023-08-21T03:21:57;10.27;;;3.63;;
44276;SDS011;29973;43.742;1.236;2023-08-21T03:24:23;15.02;;;3.30;;
44276;SDS011;29973;43.742;1.236;2023-08-21T03:26:48;9.35;;;2.78;;
44276;SDS011;29973;43.742;1.236;2023-08-21T03:29:14;9.10;;;3.30;;
44276;SDS011;29973;43.742;1.236;2023-08-21T03:31:40;9.93;;;3.42;;
44276;SDS011;29973;43.742;1.236;2023-08-21T03:34:06;13.45;;;3.10;;
44276;SDS011;29973;43.742;1.236;2023-08-21T03:36:31;7.50;;;2.55;;
44276;SDS011;29973;43.742;1.236;2023-08-21T03:38:58;11.20;;;3.67;;
44276;SDS011;29973;43.742;1.236;2023-08-21T03:41:24;11.80;;;3.63;;
44276;SDS011;29973;43.742;1.236;2023-08-21T03:43:50;9.73;;;3.30;;
44276;SDS011;29973;43.742;1.236;2023-08-21T03:46:16;8.45;;;3.17;;
44276;SDS011;29973;43.742;1.236;2023-08-21T03:48:41;11.90;;;3.47;;
44276;SDS011;29973;43.742;1.236;2023-08-21T03:51:07;12.38;;;3.67;;
44276;SDS011;29973;43.742;1.236;2023-08-21T03:53:33;9.77;;;3.25;;
44276;SDS011;29973;43.742;1.236;2023-08-21T03:55:58;16.48;;;3.97;;
44276;SDS011;29973;43.742;1.236;2023-08-21T03:58:24;10.38;;;3.85;;
44276;SDS011;29973;43.742;1.236;2023-08-21T04:00:51;9.70;;;3.00;;
44276;SDS011;29973;43.742;1.236;2023-08-21T04:03:17;20.60;;;4.38;;
44276;SDS011;29973;43.742;1.236;2023-08-21T04:05:43;7.30;;;3.17;;
44276;SDS011;29973;43.742;1.236;2023-08-21T04:08:09;12.07;;;3.70;;
44276;SDS011;29973;43.742;1.236;2023-08-21T04:10:34;13.90;;;3.80;;
44276;SDS011;29973;43.742;1.236;2023-08-21T04:13:00;12.25;;;3.40;;
44276;SDS011;29973;43.742;1.236;2023-08-21T04:15:26;10.50;;;3.85;;
44276;SDS011;29973;43.742;1.236;2023-08-21T04:17:52;15.75;;;3.55;;
44276;SDS011;29973;43.742;1.236;2023-08-21T04:20:19;9.35;;;3.53;;
44276;SDS011;29973;43.742;1.236;2023-08-21T04:22:46;16.73;;;4.50;;
44276;SDS011;29973;43.742;1.236;2023-08-21T04:25:12;11.30;;;3.65;;
44276;SDS011;29973;43.742;1.236;2023-08-21T04:27:38;9.52;;;3.30;;
44276;SDS011;29973;43.742;1.236;2023-08-21T04:30:04;8.70;;;3.50;;
44276;SDS011;29973;43.742;1.236;2023-08-21T04:32:30;10.32;;;3.67;;
44276;SDS011;29973;43.742;1.236;2023-08-21T04:34:56;12.38;;;3.97;;
44276;SDS011;29973;43.742;1.236;2023-08-21T04:37:23;13.90;;;4.15;;
44276;SDS011;29973;43.742;1.236;2023-08-21T04:39:52;12.70;;;3.85;;
44276;SDS011;29973;43.742;1.236;2023-08-21T04:42:18;11.57;;;4.18;;
44276;SDS011;29973;43.742;1.236;2023-08-21T04:44:44;18.35;;;3.97;;
44276;SDS011;29973;43.742;1.236;2023-08-21T04:47:20;10.95;;;4.10;;
44276;SDS011;29973;43.742;1.236;2023-08-21T04:49:48;9.48;;;4.22;;
44276;SDS011;29973;43.742;1.236;2023-08-21T04:52:15;12.15;;;3.58;;
44276;SDS011;29973;43.742;1.236;2023-08-21T04:54:40;15.85;;;4.10;;
44276;SDS011;29973;43.742;1.236;2023-08-21T04:57:06;10.27;;;3.42;;
44276;SDS011;29973;43.742;1.236;2023-08-21T04:59:32;11.25;;;3.38;;
44276;SDS011;29973;43.742;1.236;2023-08-21T05:01:58;7.18;;;3.63;;
44276;SDS011;29973;43.742;1.236;2023-08-21T05:04:23;10.32;;;4.22;;
44276;SDS011;29973;43.742;1.236;2023-08-21T05:06:49;15.30;;;4.47;;
44276;SDS011;29973;43.742;1.236;2023-08-21T05:09:15;16.77;;;4.57;;
44276;SDS011;29973;43.742;1.236;2023-08-21T05:11:40;13.52;;;4.15;;
44276;SDS011;29973;43.742;1.236;2023-08-21T05:14:06;11.48;;;3.67;;
44276;SDS011;29973;43.742;1.236;2023-08-21T05:16:32;12.63;;;4.53;;
44276;SDS011;29973;43.742;1.236;2023-08-21T05:18:58;14.35;;;4.22;;
44276;SDS011;29973;43.742;1.236;2023-08-21T05:21:24;13.23;;;3.92;;
44276;SDS011;29973;43.742;1.236;2023-08-21T05:23:50;12.07;;;3.85;;
44276;SDS011;29973;43.742;1.236;2023-08-21T05:26:15;11.80;;;4.60;;
44276;SDS011;29973;43.742;1.236;2023-08-21T05:28:41;16.38;;;4.55;;
44276;SDS011;29973;43.742;1.236;2023-08-21T05:31:07;14.15;;;3.78;;
44276;SDS011;29973;43.742;1.236;2023-08-21T05:33:32;15.98;;;4.63;;
44276;SDS011;29973;43.742;1.236;2023-08-21T05:35:58;14.50;;;3.92;;
44276;SDS011;29973;43.742;1.236;2023-08-21T05:38:24;12.15;;;3.90;;
44276;SDS011;29973;43.742;1.236;2023-08-21T05:40:50;13.32;;;3.83;;
44276;SDS011;29973;43.742;1.236;2023-08-21T05:43:20;14.68;;;4.20;;
44276;SDS011;29973;43.742;1.236;2023-08-21T05:45:46;14.82;;;4.00;;
44276;SDS011;29973;43.742;1.236;2023-08-21T05:48:12;17.00;;;4.72;;
44276;SDS011;29973;43.742;1.236;2023-08-21T05:50:38;9.15;;;3.78;;
44276;SDS011;29973;43.742;1.236;2023-08-21T05:53:05;17.35;;;4.28;;
44276;SDS011;29973;43.742;1.236;2023-08-21T05:55:31;17.40;;;4.80;;
44276;SDS011;29973;43.742;1.236;2023-08-21T05:57:57;19.42;;;4.40;;
44276;SDS011;29973;43.742;1.236;2023-08-21T06:00:23;10.40;;;3.88;;
44276;SDS011;29973;43.742;1.236;2023-08-21T06:02:49;8.98;;;3.85;;
44276;SDS011;29973;43.742;1.236;2023-08-21T06:05:15;13.50;;;4.00;;
44276;SDS011;29973;43.742;1.236;2023-08-21T06:07:41;11.13;;;3.50;;
44276;SDS011;29973;43.742;1.236;2023-08-21T06:10:07;13.02;;;3.53;;
44276;SDS011;29973;43.742;1.236;2023-08-21T06:12:33;13.88;;;3.88;;
44276;SDS011;29973;43.742;1.236;2023-08-21T06:14:59;12.27;;;3.85;;
44276;SDS011;29973;43.742;1.236;2023-08-21T06:17:26;16.23;;;4.75;;
44276;SDS011;29973;43.742;1.236;2023-08-21T06:19:52;11.93;;;3.72;;
44276;SDS011;29973;43.742;1.236;2023-08-21T06:22:18;12.40;;;3.60;;
44276;SDS011;29973;43.742;1.236;2023-08-21T06:24:43;7.15;;;3.50;;
44276;SDS011;29973;43.742;1.236;2023-08-21T06:27:09;10.57;;;3.25;;
44276;SDS011;29973;43.742;1.236;2023-08-21T06:29:35;11.20;;;3.33;;
44276;SDS011;29973;43.742;1.236;2023-08-21T06:32:02;15.30;;;3.35;;
44276;SDS011;29973;43.742;1.236;2023-08-21T06:34:28;10.77;;;3.30;;
44276;SDS011;29973;43.742;1.236;2023-08-21T06:36:54;15.10;;;4.10;;
44276;SDS011;29973;43.742;1.236;2023-08-21T06:39:20;10.32;;;3.75;;
44276;SDS011;29973;43.742;1.236;2023-08-21T06:41:45;10.27;;;2.92;;
44276;SDS011;29973;43.742;1.236;2023-08-21T06:44:11;13.55;;;3.10;;
44276;SDS011;29973;43.742;1.236;2023-08-21T06:46:37;11.18;;;3.22;;
44276;SDS011;29973;43.742;1.236;2023-08-21T06:49:02;11.90;;;3.60;;
44276;SDS011;29973;43.742;1.236;2023-08-21T06:51:28;10.35;;;2.95;;
44276;SDS011;29973;43.742;1.236;2023-08-21T06:53:54;13.57;;;3.05;;
44276;SDS011;29973;43.742;1.236;2023-08-21T06:56:20;10.18;;;3.13;;
44276;SDS011;29973;43.742;1.236;2023-08-21T06:58:46;11.23;;;3.38;;
44276;SDS011;29973;43.742;1.236;2023-08-21T07:01:11;8.18;;;2.60;;
44276;SDS011;29973;43.742;1.236;2023-08-21T07:03:37;11.57;;;2.97;;
44276;SDS011;29973;43.742;1.236;2023-08-21T07:06:03;12.20;;;2.95;;
44276;SDS011;29973;43.742;1.236;2023-08-21T07:08:29;13.43;;;3.30;;
44276;SDS011;29973;43.742;1.236;2023-08-21T07:10:54;8.05;;;3.00;;
44276;SDS011;29973;43.742;1.236;2023-08-21T07:13:20;13.95;;;3.03;;
44276;SDS011;29973;43.742;1.236;2023-08-21T07:15:46;16.92;;;3.20;;
44276;SDS011;29973;43.742;1.236;2023-08-21T07:18:12;10.20;;;3.10;;
44276;SDS011;29973;43.742;1.236;2023-08-21T07:20:39;9.38;;;2.80;;
44276;SDS011;29973;43.742;1.236;2023-08-21T07:23:04;8.63;;;2.55;;
44276;SDS011;29973;43.742;1.236;2023-08-21T07:25:31;7.35;;;2.88;;
44276;SDS011;29973;43.742;1.236;2023-08-21T07:27:56;9.48;;;2.63;;
44276;SDS011;29973;43.742;1.236;2023-08-21T07:30:23;10.52;;;2.78;;
44276;SDS011;29973;43.742;1.236;2023-08-21T07:32:49;9.82;;;2.55;;
44276;SDS011;29973;43.742;1.236;2023-08-21T07:35:15;9.13;;;2.83;;
44276;SDS011;29973;43.742;1.236;2023-08-21T07:37:44;9.95;;;3.38;;
44276;SDS011;29973;43.742;1.236;2023-08-21T07:40:10;10.10;;;2.80;;
44276;SDS011;29973;43.742;1.236;2023-08-21T07:42:37;9.38;;;2.60;;
44276;SDS011;29973;43.742;1.236;2023-08-21T07:45:03;8.75;;;2.72;;
44276;SDS011;29973;43.742;1.236;2023-08-21T07:47:29;6.78;;;2.45;;
44276;SDS011;29973;43.742;1.236;2023-08-21T07:49:55;13.88;;;2.60;;
44276;SDS011;29973;43.742;1.236;2023-08-21T07:52:22;9.40;;;2.53;;
44276;SDS011;29973;43.742;1.236;2023-08-21T07:54:52;12.00;;;2.90;;
44276;SDS011;29973;43.742;1.236;2023-08-21T07:57:18;12.65;;;2.90;;
44276;SDS011;29973;43.742;1.236;2023-08-21T07:59:44;10.50;;;2.63;;
44276;SDS011;29973;43.742;1.236;2023-08-21T08:02:09;9.45;;;3.22;;
44276;SDS011;29973;43.742;1.236;2023-08-21T08:04:39;15.05;;;3.33;;
44276;SDS011;29973;43.742;1.236;2023-08-21T08:07:04;7.03;;;2.53;;
44276;SDS011;29973;43.742;1.236;2023-08-21T08:09:30;11.93;;;2.70;;
44276;SDS011;29973;43.742;1.236;2023-08-21T08:11:56;8.55;;;2.70;;
44276;SDS011;29973;43.742;1.236;2023-08-21T08:14:22;8.88;;;2.58;;
44276;SDS011;29973;43.742;1.236;2023-08-21T08:16:48;7.10;;;2.80;;
44276;SDS011;29973;43.742;1.236;2023-08-21T08:19:13;9.27;;;2.60;;
44276;SDS011;29973;43.742;1.236;2023-08-21T08:21:39;6.70;;;2.25;;
44276;SDS011;29973;43.742;1.236;2023-08-21T08:24:05;7.00;;;2.25;;
44276;SDS011;29973;43.742;1.236;2023-08-21T08:26:31;10.57;;;2.40;;
44276;SDS011;29973;43.742;1.236;2023-08-21T08:28:57;9.15;;;2.15;;
44276;SDS011;29973;43.742;1.236;2023-08-21T08:31:23;9.93;;;2.60;;
44276;SDS011;29973;43.742;1.236;2023-08-21T08:33:50;12.30;;;3.40;;
44276;SDS011;29973;43.742;1.236;2023-08-21T08:36:17;9.00;;;2.83;;
44276;SDS011;29973;43.742;1.236;2023-08-21T08:38:42;8.27;;;2.85;;
44276;SDS011;29973;43.742;1.236;2023-08-21T08:41:13;8.18;;;2.92;;
44276;SDS011;29973;43.742;1.236;2023-08-21T08:44:00;7.43;;;2.35;;
44276;SDS011;29973;43.742;1.236;2023-08-21T08:46:27;12.68;;;3.03;;
44276;SDS011;29973;43.742;1.236;2023-08-21T08:48:54;8.38;;;2.20;;
44276;SDS011;29973;43.742;1.236;2023-08-21T08:51:25;9.70;;;2.30;;
44276;SDS011;29973;43.742;1.236;2023-08-21T08:53:55;8.98;;;3.22;;
44276;SDS011;29973;43.742;1.236;2023-08-21T08:56:23;7.78;;;2.40;;
44276;SDS011;29973;43.742;1.236;2023-08-21T08:58:49;8.52;;;2.58;;
44276;SDS011;29973;43.742;1.236;2023-08-21T09:01:16;5.93;;;2.15;;
44276;SDS011;29973;43.742;1.236;2023-08-21T09:03:42;11.07;;;2.35;;
44276;SDS011;29973;43.742;1.236;2023-08-21T09:06:15;10.10;;;2.80;;
44276;SDS011;29973;43.742;1.236;2023-08-21T09:08:53;8.77;;;2.40;;
44276;SDS011;29973;43.742;1.236;2023-08-21T09:11:20;9.13;;;2.75;;
44276;SDS011;29973;43.742;1.236;2023-08-21T09:13:50;7.50;;;2.58;;
44276;SDS011;29973;43.742;1.236;2023-08-21T09:16:36;9.57;;;2.72;;
44276;SDS011;29973;43.742;1.236;2023-08-21T09:19:26;10.40;;;2.67;;
44276;SDS011;29973;43.742;1.236;2023-08-21T09:22:16;9.70;;;2.78;;
44276;SDS011;29973;43.742;1.236;2023-08-21T09:27:31;9.73;;;2.47;;
44276;SDS011;29973;43.742;1.236;2023-08-21T09:30:04;11.35;;;2.83;;
44276;SDS011;29973;43.742;1.236;2023-08-21T09:32:52;9.02;;;3.33;;
44276;SDS011;29973;43.742;1.236;2023-08-21T09:35:22;10.32;;;2.78;;
44276;SDS011;29973;43.742;1.236;2023-08-21T09:37:54;9.23;;;2.58;;
44276;SDS011;29973;43.742;1.236;2023-08-21T09:40:21;9.65;;;2.70;;
44276;SDS011;29973;43.742;1.236;2023-08-21T09:42:51;9.68;;;2.80;;
44276;SDS011;29973;43.742;1.236;2023-08-21T09:45:22;10.30;;;2.50;;
44276;SDS011;29973;43.742;1.236;2023-08-21T09:47:49;6.80;;;2.60;;
44276;SDS011;29973;43.742;1.236;2023-08-21T09:50:16;9.30;;;2.58;;
44276;SDS011;29973;43.742;1.236;2023-08-21T09:52:43;7.18;;;2.60;;
44276;SDS011;29973;43.742;1.236;2023-08-21T09:55:10;6.80;;;2.60;;
44276;SDS011;29973;43.742;1.236;2023-08-21T09:57:38;8.93;;;2.38;;
44276;SDS011;29973;43.742;1.236;2023-08-21T10:00:06;7.97;;;2.17;;
44276;SDS011;29973;43.742;1.236;2023-08-21T10:02:50;8.77;;;2.60;;
44276;SDS011;29973;43.742;1.236;2023-08-21T10:05:17;11.70;;;2.83;;
44276;SDS011;29973;43.742;1.236;2023-08-21T10:07:43;8.82;;;2.33;;
44276;SDS011;29973;43.742;1.236;2023-08-21T10:10:15;11.70;;;3.08;;
44276;SDS011;29973;43.742;1.236;2023-08-21T10:12:41;12.45;;;2.33;;
44276;SDS011;29973;43.742;1.236;2023-08-21T10:15:07;8.68;;;2.33;;
44276;SDS011;29973;43.742;1.236;2023-08-21T10:17:35;10.65;;;2.75;;
44276;SDS011;29973;43.742;1.236;2023-08-21T10:20:04;8.27;;;2.58;;
44276;SDS011;29973;43.742;1.236;2023-08-21T10:22:44;7.68;;;2.42;;
44276;SDS011;29973;43.742;1.236;2023-08-21T10:25:20;7.75;;;2.70;;
44276;SDS011;29973;43.742;1.236;2023-08-21T10:27:57;10.55;;;2.35;;
44276;SDS011;29973;43.742;1.236;2023-08-21T10:30:25;7.05;;;2.88;;
44276;SDS011;29973;43.742;1.236;2023-08-21T10:32:53;6.90;;;2.42;;
44276;SDS011;29973;43.742;1.236;2023-08-21T10:35:20;7.10;;;2.70;;
44276;SDS011;29973;43.742;1.236;2023-08-21T10:40:38;6.38;;;2.13;;
44276;SDS011;29973;43.742;1.236;2023-08-21T10:43:05;8.75;;;2.83;;
44276;SDS011;29973;43.742;1.236;2023-08-21T10:46:03;8.88;;;2.33;;
44276;SDS011;29973;43.742;1.236;2023-08-21T10:48:28;5.68;;;1.85;;
44276;SDS011;29973;43.742;1.236;2023-08-21T10:50:54;6.20;;;2.20;;
44276;SDS011;29973;43.742;1.236;2023-08-21T10:53:21;6.47;;;2.50;;
44276;SDS011;29973;43.742;1.236;2023-08-21T10:55:54;11.15;;;2.83;;
44276;SDS011;29973;43.742;1.236;2023-08-21T10:58:20;5.53;;;2.10;;
44276;SDS011;29973;43.742;1.236;2023-08-21T11:00:46;6.75;;;2.25;;
44276;SDS011;29973;43.742;1.236;2023-08-21T11:03:20;9.80;;;2.33;;
44276;SDS011;29973;43.742;1.236;2023-08-21T11:05:59;8.27;;;2.30;;
44276;SDS011;29973;43.742;1.236;2023-08-21T11:08:29;5.60;;;2.22;;
44276;SDS011;29973;43.742;1.236;2023-08-21T11:10:56;3.05;;;1.83;;
44276;SDS011;29973;43.742;1.236;2023-08-21T11:13:25;9.38;;;2.55;;
44276;SDS011;29973;43.742;1.236;2023-08-21T11:16:04;6.97;;;2.30;;
44276;SDS011;29973;43.742;1.236;2023-08-21T11:18:31;7.00;;;2.50;;
44276;SDS011;29973;43.742;1.236;2023-08-21T11:21:04;5.55;;;2.10;;
44276;SDS011;29973;43.742;1.236;2023-08-21T11:23:34;5.07;;;2.17;;
44276;SDS011;29973;43.742;1.236;2023-08-21T11:26:02;6.25;;;2.33;;
44276;SDS011;29973;43.742;1.236;2023-08-21T11:28:29;8.32;;;2.65;;
44276;SDS011;29973;43.742;1.236;2023-08-21T11:30:56;5.82;;;2.20;;
44276;SDS011;29973;43.742;1.236;2023-08-21T11:33:22;8.25;;;2.22;;
44276;SDS011;29973;43.742;1.236;2023-08-21T11:35:48;5.10;;;2.50;;
44276;SDS011;29973;43.742;1.236;2023-08-21T11:38:21;6.38;;;2.13;;
44276;SDS011;29973;43.742;1.236;2023-08-21T11:43:20;7.00;;;2.25;;
44276;SDS011;29973;43.742;1.236;2023-08-21T11:45:46;7.72;;;2.40;;
44276;SDS011;29973;43.742;1.236;2023-08-21T11:48:12;6.20;;;2.35;;
44276;SDS011;29973;43.742;1.236;2023-08-21T11:50:38;6.55;;;2.13;;
44276;SDS011;29973;43.742;1.236;2023-08-21T11:53:04;8.57;;;2.20;;
44276;SDS011;29973;43.742;1.236;2023-08-21T11:55:30;6.38;;;2.40;;
44276;SDS011;29973;43.742;1.236;2023-08-21T11:57:56;6.97;;;2.47;;
44276;SDS011;29973;43.742;1.236;2023-08-21T12:00:27;5.47;;;2.10;;
44276;SDS011;29973;43.742;1.236;2023-08-21T12:03:00;9.18;;;2.30;;
44276;SDS011;29973;43.742;1.236;2023-08-21T12:05:28;5.18;;;2.35;;
44276;SDS011;29973;43.742;1.236;2023-08-21T12:07:54;6.18;;;2.10;;
44276;SDS011;29973;43.742;1.236;2023-08-21T12:10:28;7.43;;;2.47;;
44276;SDS011;29973;43.742;1.236;2023-08-21T12:12:55;7.22;;;2.15;;
44276;SDS011;29973;43.742;1.236;2023-08-21T12:15:21;5.80;;;2.17;;
44276;SDS011;29973;43.742;1.236;2023-08-21T12:17:47;6.60;;;2.08;;
44276;SDS011;29973;43.742;1.236;2023-08-21T12:20:13;6.65;;;2.10;;
44276;SDS011;29973;43.742;1.236;2023-08-21T12:22:39;6.53;;;1.92;;
44276;SDS011;29973;43.742;1.236;2023-08-21T12:25:05;5.88;;;2.40;;
44276;SDS011;29973;43.742;1.236;2023-08-21T12:27:32;5.45;;;2.03;;
44276;SDS011;29973;43.742;1.236;2023-08-21T12:29:58;6.75;;;2.25;;
44276;SDS011;29973;43.742;1.236;2023-08-21T12:32:24;4.50;;;2.40;;
44276;SDS011;29973;43.742;1.236;2023-08-21T12:34:49;7.50;;;2.22;;
44276;SDS011;29973;43.742;1.236;2023-08-21T12:37:15;7.03;;;1.92;;
44276;SDS011;29973;43.742;1.236;2023-08-21T12:39:41;6.72;;;2.20;;
44276;SDS011;29973;43.742;1.236;2023-08-21T12:42:07;6.40;;;2.25;;
44276;SDS011;29973;43.742;1.236;2023-08-21T12:44:33;8.20;;;2.35;;
44276;SDS011;29973;43.742;1.236;2023-08-21T12:46:59;9.95;;;2.60;;
44276;SDS011;29973;43.742;1.236;2023-08-21T12:49:25;10.20;;;2.95;;
44276;SDS011;29973;43.742;1.236;2023-08-21T12:51:51;7.72;;;2.10;;
44276;SDS011;29973;43.742;1.236;2023-08-21T12:54:16;7.75;;;2.33;;
44276;SDS011;29973;43.742;1.236;2023-08-21T12:56:42;6.00;;;2.40;;
44276;SDS011;29973;43.742;1.236;2023-08-21T12:59:08;6.35;;;2.65;;
44276;SDS011;29973;43.742;1.236;2023-08-21T13:01:33;8.52;;;2.53;;
44276;SDS011;29973;43.742;1.236;2023-08-21T13:04:01;10.50;;;2.40;;
44276;SDS011;29973;43.742;1.236;2023-08-21T13:06:28;5.07;;;2.40;;
44276;SDS011;29973;43.742;1.236;2023-08-21T13:08:53;4.28;;;2.22;;
44276;SDS011;29973;43.742;1.236;2023-08-21T13:11:19;6.55;;;2.40;;
44276;SDS011;29973;43.742;1.236;2023-08-21T13:13:45;5.80;;;2.33;;
44276;SDS011;29973;43.742;1.236;2023-08-21T13:16:10;3.72;;;2.45;;
44276;SDS011;29973;43.742;1.236;2023-08-21T13:18:36;6.07;;;2.22;;
44276;SDS011;29973;43.742;1.236;2023-08-21T13:21:02;4.80;;;2.10;;
44276;SDS011;29973;43.742;1.236;2023-08-21T13:23:28;5.20;;;2.38;;
44276;SDS011;29973;43.742;1.236;2023-08-21T13:25:55;8.00;;;2.78;;
44276;SDS011;29973;43.742;1.236;2023-08-21T13:28:22;6.28;;;2.42;;
44276;SDS011;29973;43.742;1.236;2023-08-21T13:30:48;7.68;;;2.53;;
44276;SDS011;29973;43.742;1.236;2023-08-21T13:33:14;6.75;;;2.78;;
44276;SDS011;29973;43.742;1.236;2023-08-21T13:35:43;10.20;;;2.85;;
44276;SDS011;29973;43.742;1.236;2023-08-21T13:38:14;5.70;;;2.70;;
44276;SDS011;29973;43.742;1.236;2023-08-21T13:40:40;8.15;;;2.75;;
44276;SDS011;29973;43.742;1.236;2023-08-21T13:43:06;11.52;;;2.47;;
44276;SDS011;29973;43.742;1.236;2023-08-21T13:45:34;6.57;;;2.43;;
44276;SDS011;29973;43.742;1.236;2023-08-21T13:48:00;5.68;;;2.08;;
44276;SDS011;29973;43.742;1.236;2023-08-21T13:50:26;9.65;;;2.80;;
44276;SDS011;29973;43.742;1.236;2023-08-21T13:52:52;6.93;;;2.63;;
44276;SDS011;29973;43.742;1.236;2023-08-21T13:55:17;7.32;;;2.67;;
44276;SDS011;29973;43.742;1.236;2023-08-21T13:57:43;5.53;;;2.65;;
44276;SDS011;29973;43.742;1.236;2023-08-21T14:00:09;5.72;;;2.20;;
44276;SDS011;29973;43.742;1.236;2023-08-21T14:02:39;4.63;;;2.17;;
44276;SDS011;29973;43.742;1.236;2023-08-21T14:05:06;7.30;;;2.70;;
44276;SDS011;29973;43.742;1.236;2023-08-21T14:07:33;5.72;;;2.40;;
44276;SDS011;29973;43.742;1.236;2023-08-21T14:10:00;9.35;;;2.55;;
44276;SDS011;29973;43.742;1.236;2023-08-21T14:12:28;7.95;;;2.58;;
44276;SDS011;29973;43.742;1.236;2023-08-21T14:14:54;8.10;;;2.33;;
44276;SDS011;29973;43.742;1.236;2023-08-21T14:17:20;10.68;;;3.05;;
44276;SDS011;29973;43.742;1.236;2023-08-21T14:19:46;5.97;;;2.35;;
44276;SDS011;29973;43.742;1.236;2023-08-21T14:22:12;10.18;;;2.35;;
44276;SDS011;29973;43.742;1.236;2023-08-21T14:24:37;8.07;;;2.60;;
44276;SDS011;29973;43.742;1.236;2023-08-21T14:27:03;7.45;;;2.63;;
44276;SDS011;29973;43.742;1.236;2023-08-21T14:29:29;9.07;;;2.30;;
44276;SDS011;29973;43.742;1.236;2023-08-21T14:31:55;8.15;;;2.50;;
44276;SDS011;29973;43.742;1.236;2023-08-21T14:34:22;7.03;;;2.55;;
44276;SDS011;29973;43.742;1.236;2023-08-21T14:36:47;6.60;;;2.25;;
44276;SDS011;29973;43.742;1.236;2023-08-21T14:39:14;5.07;;;2.90;;
44276;SDS011;29973;43.742;1.236;2023-08-21T14:41:43;6.50;;;2.53;;
44276;SDS011;29973;43.742;1.236;2023-08-21T14:44:09;4.90;;;2.60;;
44276;SDS011;29973;43.742;1.236;2023-08-21T14:46:35;5.35;;;2.95;;
44276;SDS011;29973;43.742;1.236;2023-08-21T14:49:01;5.85;;;2.58;;
44276;SDS011;29973;43.742;1.236;2023-08-21T14:51:27;6.60;;;2.90;;
44276;SDS011;29973;43.742;1.236;2023-08-21T14:53:53;6.43;;;2.70;;
44276;SDS011;29973;43.742;1.236;2023-08-21T14:56:20;10.57;;;2.40;;
44276;SDS011;29973;43.742;1.236;2023-08-21T14:58:46;4.00;;;2.20;;